Time;durP1;ratioP1;P1;durP2;ratioP2;P2;SDS_P1;SDS_P2;PMS_P1;PMS_P2;Temp;Humidity;BMP_temperature;BMP_pressure;BME280_temperature;BME280_humidity;BME280_pressure;Samples;Min_cycle;Max_cycle;Signal;HPM_P1;HPM_P2
2021/10/06 00:00:41;;;;;;;1.30;1.20;;;10.60;99.90;;;;;;5035568;28;20174;-65
2021/10/06 00:03:07;;;;;;;1.83;0.90;;;10.60;99.90;;;;;;5035445;28;20182;-65
2021/10/06 00:05:32;;;;;;;1.40;1.10;;;10.60;99.90;;;;;;5035422;28;20280;-65
2021/10/06 00:07:58;;;;;;;6.20;1.50;;;10.60;99.90;;;;;;5035150;28;20194;-65
2021/10/06 00:10:23;;;;;;;1.73;1.43;;;10.50;99.90;;;;;;5035488;28;20166;-65
2021/10/06 00:12:49;;;;;;;2.50;1.20;;;10.60;99.90;;;;;;5035421;28;20202;-66
2021/10/06 00:15:14;;;;;;;2.50;1.00;;;10.60;99.90;;;;;;5035356;28;20602;-65
2021/10/06 00:17:41;;;;;;;1.90;1.33;;;10.50;99.90;;;;;;5034849;28;20196;-63
2021/10/06 00:20:09;;;;;;;1.67;1.00;;;10.60;99.90;;;;;;5034025;28;20265;-64
2021/10/06 00:22:35;;;;;;;2.30;1.17;;;10.50;99.90;;;;;;5035346;28;20942;-65
2021/10/06 00:25:00;;;;;;;4.80;1.17;;;10.50;99.90;;;;;;5035096;28;20498;-65
2021/10/06 00:27:26;;;;;;;4.33;1.30;;;10.50;99.90;;;;;;5034775;28;20198;-66
2021/10/06 00:29:51;;;;;;;2.97;1.27;;;10.50;99.90;;;;;;5035022;28;20220;-66
2021/10/06 00:32:17;;;;;;;2.93;1.00;;;10.50;99.90;;;;;;5034969;28;20179;-66
2021/10/06 00:34:43;;;;;;;2.00;1.40;;;10.50;99.90;;;;;;5035008;28;20162;-66
2021/10/06 00:37:08;;;;;;;1.83;1.00;;;10.40;99.90;;;;;;5034646;28;20182;-66
2021/10/06 00:39:34;;;;;;;3.43;1.60;;;10.40;99.90;;;;;;5034700;28;20179;-64
2021/10/06 00:41:59;;;;;;;2.40;1.40;;;10.40;99.90;;;;;;5033577;28;20174;-66
2021/10/06 00:44:31;;;;;;;2.00;1.73;;;10.40;99.90;;;;;;5034792;28;20197;-66
2021/10/06 00:46:57;;;;;;;2.53;1.57;;;10.30;99.90;;;;;;5034598;28;20263;-65
2021/10/06 00:49:22;;;;;;;3.10;1.30;;;10.30;99.90;;;;;;5034371;28;20499;-66
2021/10/06 00:51:48;;;;;;;1.40;1.30;;;10.30;99.90;;;;;;5034640;28;20546;-66
2021/10/06 00:54:13;;;;;;;3.47;1.37;;;10.30;99.90;;;;;;5034643;28;20264;-65
2021/10/06 00:56:39;;;;;;;2.20;1.10;;;10.30;99.90;;;;;;5034556;28;20715;-66
2021/10/06 00:59:04;;;;;;;1.13;1.03;;;10.30;99.90;;;;;;5034246;28;20684;-66
2021/10/06 01:01:30;;;;;;;1.33;1.20;;;10.30;99.90;;;;;;5034329;28;20200;-64
2021/10/06 01:03:56;;;;;;;2.73;1.50;;;10.30;99.90;;;;;;5034473;28;20183;-66
2021/10/06 01:06:22;;;;;;;1.43;1.33;;;10.40;99.90;;;;;;5034278;28;20871;-66
2021/10/06 01:08:47;;;;;;;3.87;1.53;;;10.40;99.90;;;;;;5033980;28;20281;-66
2021/10/06 01:11:13;;;;;;;4.40;1.67;;;10.40;99.90;;;;;;5034306;28;20174;-66
2021/10/06 01:13:39;;;;;;;2.33;1.20;;;10.40;99.90;;;;;;5034293;28;20707;-65
2021/10/06 01:16:05;;;;;;;4.10;1.67;;;10.30;99.90;;;;;;5034092;28;20228;-66
2021/10/06 01:18:31;;;;;;;1.90;1.77;;;10.40;99.90;;;;;;5033880;28;20194;-66
2021/10/06 01:20:57;;;;;;;1.50;1.40;;;10.30;99.90;;;;;;5034089;28;20420;-66
2021/10/06 01:23:23;;;;;;;7.30;1.90;;;10.30;99.90;;;;;;5034110;28;20458;-66
2021/10/06 01:25:48;;;;;;;1.73;1.40;;;10.30;99.90;;;;;;5033969;28;20241;-66
2021/10/06 01:28:14;;;;;;;3.63;1.40;;;10.20;99.90;;;;;;5033674;28;20194;-65
2021/10/06 01:30:40;;;;;;;5.90;1.40;;;10.20;99.90;;;;;;5033863;28;20813;-66
2021/10/06 01:33:06;;;;;;;4.20;1.43;;;10.10;99.90;;;;;;5033917;28;20261;-66
2021/10/06 01:35:31;;;;;;;1.40;1.30;;;10.10;99.90;;;;;;5033835;28;20186;-65
2021/10/06 01:37:58;;;;;;;2.10;1.10;;;10.10;99.90;;;;;;5032974;28;20303;-65
2021/10/06 01:40:23;;;;;;;2.90;1.40;;;10.20;99.90;;;;;;5032744;28;20189;-64
2021/10/06 01:42:50;;;;;;;5.60;1.70;;;10.20;99.90;;;;;;5032706;28;20417;-66
2021/10/06 01:45:23;;;;;;;1.23;1.13;;;10.20;99.90;;;;;;5031246;28;20205;-66
2021/10/06 01:47:49;;;;;;;3.53;1.20;;;10.30;99.90;;;;;;5032327;28;20440;-67
2021/10/06 01:50:20;;;;;;;1.60;1.20;;;10.30;99.90;;;;;;5032582;28;20413;-66
2021/10/06 01:52:45;;;;;;;3.30;1.43;;;10.30;99.90;;;;;;5032601;28;20174;-66
2021/10/06 01:55:11;;;;;;;1.87;1.50;;;10.30;99.90;;;;;;5032486;28;20478;-66
2021/10/06 01:57:36;;;;;;;2.30;1.50;;;10.20;99.90;;;;;;5032189;28;20198;-66
2021/10/06 02:00:03;;;;;;;2.97;1.47;;;10.20;99.90;;;;;;5032425;28;20609;-66
2021/10/06 02:02:29;;;;;;;1.70;1.20;;;10.20;99.90;;;;;;5031216;28;20209;-67
2021/10/06 02:04:54;;;;;;;3.80;1.80;;;10.20;99.90;;;;;;5032418;28;20460;-66
2021/10/06 02:07:20;;;;;;;1.67;1.17;;;10.20;99.90;;;;;;5031407;28;20199;-65
2021/10/06 02:09:45;;;;;;;1.87;1.57;;;10.20;99.90;;;;;;5031060;28;20179;-67
2021/10/06 02:12:11;;;;;;;2.93;1.33;;;10.20;99.90;;;;;;5032310;28;20174;-66
2021/10/06 02:14:36;;;;;;;5.47;1.27;;;10.10;99.90;;;;;;5032133;28;20227;-65
2021/10/06 02:17:02;;;;;;;3.43;1.40;;;10.10;99.90;;;;;;5032096;28;20178;-66
2021/10/06 02:19:28;;;;;;;3.37;1.30;;;10.10;99.90;;;;;;5031904;28;20179;-66
2021/10/06 02:21:53;;;;;;;3.53;1.37;;;10.10;99.90;;;;;;5032146;28;20551;-66
2021/10/06 02:24:19;;;;;;;2.30;1.50;;;10.00;99.90;;;;;;5032120;28;20742;-65
2021/10/06 02:26:45;;;;;;;3.47;1.57;;;10.10;99.90;;;;;;5031992;28;20205;-65
2021/10/06 02:29:10;;;;;;;5.70;1.50;;;10.10;99.90;;;;;;5031598;28;20636;-66
2021/10/06 02:31:36;;;;;;;1.30;1.10;;;10.00;99.90;;;;;;5032037;28;20555;-65
2021/10/06 02:34:01;;;;;;;2.10;1.47;;;9.90;99.90;;;;;;5031946;28;20659;-66
2021/10/06 02:36:27;;;;;;;2.83;1.67;;;9.90;99.90;;;;;;5031914;28;20170;-65
2021/10/06 02:38:52;;;;;;;2.83;1.97;;;9.80;99.90;;;;;;4996397;28;1024496;-65
2021/10/06 02:41:18;;;;;;;2.07;1.87;;;9.70;99.90;;;;;;5032581;28;20461;-66
2021/10/06 02:43:43;;;;;;;3.23;1.93;;;9.60;99.90;;;;;;5032425;28;20182;-66
2021/10/06 02:46:09;;;;;;;3.70;1.93;;;9.50;99.90;;;;;;5032405;28;20202;-65
2021/10/06 02:48:34;;;;;;;5.03;2.00;;;9.40;99.90;;;;;;5031063;28;20594;-66
2021/10/06 02:51:00;;;;;;;1.63;1.53;;;9.40;99.90;;;;;;5032374;28;20187;-66
2021/10/06 02:53:25;;;;;;;2.23;2.10;;;9.40;99.90;;;;;;5032447;28;20301;-64
2021/10/06 02:55:51;;;;;;;3.60;1.63;;;9.30;99.90;;;;;;5032388;28;20181;-66
2021/10/06 02:58:16;;;;;;;3.40;1.77;;;9.40;99.90;;;;;;5031964;28;20214;-65
2021/10/06 03:00:42;;;;;;;1.97;1.40;;;9.40;99.90;;;;;;5032252;28;20545;-66
2021/10/06 03:03:07;;;;;;;3.20;1.20;;;9.40;99.90;;;;;;5032296;28;20660;-66
2021/10/06 03:05:33;;;;;;;2.70;1.50;;;9.40;99.90;;;;;;5032152;28;20198;-66
2021/10/06 03:07:59;;;;;;;4.37;1.73;;;9.50;99.90;;;;;;5031859;28;20743;-66
2021/10/06 03:10:25;;;;;;;3.40;1.90;;;9.50;99.90;;;;;;5032217;28;20198;-66
2021/10/06 03:12:50;;;;;;;4.83;2.10;;;9.50;99.90;;;;;;5032032;28;20258;-66
2021/10/06 03:15:16;;;;;;;10.47;1.87;;;9.50;99.90;;;;;;5032119;28;20183;-65
2021/10/06 03:17:41;;;;;;;1.73;1.60;;;9.50;99.90;;;;;;5031170;28;20272;-66
2021/10/06 03:20:09;;;;;;;1.87;1.40;;;9.40;99.90;;;;;;5031733;28;20600;-66
2021/10/06 03:22:35;;;;;;;2.70;1.20;;;9.30;99.90;;;;;;5031850;28;20228;-66
2021/10/06 03:25:00;;;;;;;1.97;1.80;;;9.30;99.90;;;;;;5031977;28;20445;-64
2021/10/06 03:27:26;;;;;;;2.50;1.40;;;9.30;99.90;;;;;;5031570;28;20826;-67
2021/10/06 03:29:51;;;;;;;3.73;1.80;;;9.40;99.90;;;;;;5031982;28;20190;-66
2021/10/06 03:32:17;;;;;;;3.30;1.83;;;9.30;99.90;;;;;;5031899;28;20174;-65
2021/10/06 03:34:42;;;;;;;4.93;1.93;;;9.30;99.90;;;;;;5032121;28;20205;-66
2021/10/06 03:37:08;;;;;;;2.40;1.90;;;9.30;99.90;;;;;;5031594;28;20220;-62
2021/10/06 03:39:34;;;;;;;1.67;1.53;;;9.30;99.90;;;;;;5031711;28;20162;-64
2021/10/06 03:42:00;;;;;;;4.70;2.27;;;9.30;99.90;;;;;;5031744;28;20174;-65
2021/10/06 03:44:26;;;;;;;2.30;1.80;;;9.30;99.90;;;;;;5031826;28;20531;-66
2021/10/06 03:46:51;;;;;;;1.90;1.80;;;9.30;99.90;;;;;;5030388;28;20236;-66
2021/10/06 03:49:17;;;;;;;4.17;1.90;;;9.20;99.90;;;;;;5031501;28;20209;-66
2021/10/06 03:51:42;;;;;;;3.50;2.10;;;9.20;99.90;;;;;;5031834;28;20174;-65
2021/10/06 03:54:08;;;;;;;5.13;1.67;;;9.20;99.90;;;;;;5031810;28;20319;-67
2021/10/06 03:56:33;;;;;;;1.80;1.60;;;9.20;99.90;;;;;;5031607;28;20174;-66
2021/10/06 03:58:59;;;;;;;1.63;1.33;;;9.30;99.90;;;;;;5031342;28;20190;-65
2021/10/06 04:01:24;;;;;;;3.27;1.93;;;9.30;99.90;;;;;;5031626;28;20182;-66
2021/10/06 04:03:50;;;;;;;3.00;1.40;;;9.30;99.90;;;;;;5031676;28;20170;-66
2021/10/06 04:06:15;;;;;;;1.97;1.70;;;9.30;99.90;;;;;;5031687;28;20683;-66
2021/10/06 04:08:41;;;;;;;2.73;2.53;;;9.20;99.90;;;;;;5031287;28;20193;-66
2021/10/06 04:11:06;;;;;;;3.10;1.87;;;9.20;99.90;;;;;;5031492;28;20202;-65
2021/10/06 04:13:32;;;;;;;2.20;1.57;;;9.20;99.90;;;;;;5031479;28;20175;-68
2021/10/06 04:15:57;;;;;;;2.63;1.47;;;9.10;99.90;;;;;;5031532;28;20171;-66
2021/10/06 04:18:23;;;;;;;5.23;1.50;;;9.10;99.90;;;;;;5031133;28;20601;-65
2021/10/06 04:20:48;;;;;;;2.60;2.40;;;9.00;99.90;;;;;;5031482;28;20170;-66
2021/10/06 04:23:14;;;;;;;2.07;1.57;;;9.00;99.90;;;;;;5031466;28;20178;-66
2021/10/06 04:25:40;;;;;;;2.70;1.47;;;8.90;99.90;;;;;;5031207;28;20217;-66
2021/10/06 04:28:06;;;;;;;2.20;1.77;;;9.00;99.90;;;;;;5031113;28;20214;-64
2021/10/06 04:30:31;;;;;;;3.37;1.90;;;9.00;99.90;;;;;;5033639;28;20510;-66
2021/10/06 04:32:57;;;;;;;2.93;1.43;;;9.00;99.90;;;;;;5035018;28;20177;-66
2021/10/06 04:35:22;;;;;;;2.40;1.27;;;9.00;99.90;;;;;;5034993;28;20225;-64
2021/10/06 04:37:48;;;;;;;1.90;1.80;;;9.10;99.90;;;;;;5035000;28;20866;-63
2021/10/06 04:40:13;;;;;;;2.50;1.80;;;9.10;99.90;;;;;;5034770;28;20170;-64
2021/10/06 04:42:39;;;;;;;1.40;1.20;;;9.00;99.90;;;;;;5034963;28;20178;-65
2021/10/06 04:45:05;;;;;;;4.93;1.40;;;9.10;99.90;;;;;;5034734;28;20724;-63
2021/10/06 04:47:31;;;;;;;1.70;1.10;;;9.00;99.90;;;;;;5034589;28;20245;-63
2021/10/06 04:49:56;;;;;;;3.33;1.60;;;9.00;99.90;;;;;;5034691;28;20440;-63
2021/10/06 04:52:22;;;;;;;4.80;1.87;;;8.90;99.90;;;;;;5034658;28;20174;-64
2021/10/06 04:54:48;;;;;;;2.60;1.33;;;8.90;99.90;;;;;;5034490;28;20178;-63
2021/10/06 04:57:13;;;;;;;1.20;1.10;;;8.90;99.90;;;;;;5034278;28;20166;-66
2021/10/06 04:59:39;;;;;;;4.53;1.57;;;8.90;99.90;;;;;;5034698;28;20238;-63
2021/10/06 05:02:04;;;;;;;2.27;1.70;;;8.90;99.90;;;;;;5034502;28;20174;-64
2021/10/06 05:04:30;;;;;;;3.20;1.90;;;9.00;99.90;;;;;;5034457;28;20174;-64
2021/10/06 05:06:56;;;;;;;3.20;2.03;;;9.00;99.90;;;;;;5034530;28;20640;-66
2021/10/06 05:09:21;;;;;;;2.23;1.60;;;9.00;99.90;;;;;;5033951;28;20542;-65
2021/10/06 05:11:47;;;;;;;1.73;1.27;;;9.00;99.90;;;;;;5034224;28;20421;-63
2021/10/06 05:14:12;;;;;;;2.00;1.70;;;9.10;99.90;;;;;;5034398;28;20186;-64
2021/10/06 05:16:38;;;;;;;2.97;1.70;;;9.10;99.90;;;;;;5034229;28;20202;-65
2021/10/06 05:19:03;;;;;;;3.50;1.90;;;9.10;99.90;;;;;;5033893;28;20186;-64
2021/10/06 05:21:29;;;;;;;3.60;1.70;;;9.10;99.90;;;;;;5034035;28;20301;-64
2021/10/06 05:23:54;;;;;;;2.47;1.60;;;9.10;99.90;;;;;;5034042;28;20209;-65
2021/10/06 05:26:20;;;;;;;4.20;2.00;;;9.10;99.90;;;;;;5034033;28;20175;-63
2021/10/06 05:28:45;;;;;;;1.90;1.40;;;9.10;99.90;;;;;;5027827;28;20715;-64
2021/10/06 05:31:11;;;;;;;2.90;1.57;;;9.10;99.90;;;;;;5013691;28;20185;-65
2021/10/06 05:33:37;;;;;;;2.67;1.93;;;9.10;99.90;;;;;;5014111;28;20228;-63
2021/10/06 05:36:05;;;;;;;2.60;1.50;;;9.10;99.90;;;;;;5014009;28;20199;-63
2021/10/06 05:38:30;;;;;;;4.50;1.90;;;9.20;99.90;;;;;;5013312;28;20203;-63
2021/10/06 05:40:56;;;;;;;1.50;1.40;;;9.30;99.90;;;;;;5012864;28;20862;-64
2021/10/06 05:43:21;;;;;;;5.20;2.90;;;9.40;99.90;;;;;;5013990;28;20258;-63
2021/10/06 05:45:47;;;;;;;4.40;2.30;;;9.40;99.90;;;;;;5013925;28;20186;-64
2021/10/06 05:48:14;;;;;;;2.83;1.83;;;9.50;99.90;;;;;;5013461;28;20501;-64
2021/10/06 05:50:40;;;;;;;1.97;1.40;;;9.50;99.90;;;;;;5013774;28;20179;-64
2021/10/06 05:53:05;;;;;;;3.20;1.70;;;9.50;99.90;;;;;;5013601;28;20425;-64
2021/10/06 05:55:31;;;;;;;5.67;1.70;;;9.50;99.90;;;;;;5013742;28;20539;-63
2021/10/06 05:57:57;;;;;;;3.10;2.13;;;9.50;99.90;;;;;;5012290;28;20274;-63
2021/10/06 06:00:23;;;;;;;2.87;1.70;;;9.50;99.90;;;;;;5013636;28;20709;-63
2021/10/06 06:02:48;;;;;;;2.20;2.00;;;9.40;99.90;;;;;;5013597;28;20171;-64
2021/10/06 06:05:15;;;;;;;3.53;2.70;;;9.40;99.90;;;;;;5013588;28;20667;-63
2021/10/06 06:07:40;;;;;;;3.70;1.50;;;9.50;99.90;;;;;;5012861;28;20731;-64
2021/10/06 06:10:07;;;;;;;2.97;1.13;;;9.50;99.90;;;;;;5013399;28;20576;-63
2021/10/06 06:12:32;;;;;;;7.33;1.33;;;9.50;99.90;;;;;;5013367;28;20170;-64
2021/10/06 06:14:58;;;;;;;2.10;1.20;;;9.40;99.90;;;;;;5013273;28;20433;-63
2021/10/06 06:17:24;;;;;;;2.50;1.67;;;9.30;99.90;;;;;;5012992;28;20193;-64
2021/10/06 06:19:49;;;;;;;7.53;3.23;;;9.30;99.90;;;;;;5013281;28;20175;-65
2021/10/06 06:22:15;;;;;;;2.97;1.60;;;9.30;99.90;;;;;;5028245;28;20182;-63
2021/10/06 06:24:40;;;;;;;2.10;1.60;;;9.30;99.90;;;;;;5013027;28;20182;-63
2021/10/06 06:27:07;;;;;;;1.73;1.60;;;9.20;99.90;;;;;;5013177;28;20601;-64
2021/10/06 06:29:34;;;;;;;2.30;1.40;;;9.30;99.90;;;;;;5012959;28;20167;-63
2021/10/06 06:31:59;;;;;;;3.93;2.00;;;9.30;99.90;;;;;;5028155;28;20422;-63
2021/10/06 06:34:25;;;;;;;4.03;1.83;;;9.20;99.90;;;;;;5013057;28;20475;-63
2021/10/06 06:36:52;;;;;;;3.90;1.73;;;9.30;99.90;;;;;;5012738;28;20202;-65
2021/10/06 06:39:17;;;;;;;4.77;1.77;;;9.40;99.90;;;;;;5012368;28;20237;-64
2021/10/06 06:41:43;;;;;;;4.53;2.37;;;9.50;99.90;;;;;;5012893;28;20848;-63
2021/10/06 06:44:08;;;;;;;4.40;1.70;;;9.70;99.90;;;;;;5012883;28;20250;-64
2021/10/06 06:46:34;;;;;;;3.80;1.73;;;9.80;99.90;;;;;;5012748;28;20210;-63
2021/10/06 06:49:00;;;;;;;5.30;3.70;;;10.10;99.90;;;;;;5012434;28;20270;-63
2021/10/06 06:51:25;;;;;;;3.73;1.80;;;10.20;99.90;;;;;;5011324;28;20189;-64
2021/10/06 06:53:52;;;;;;;2.30;1.73;;;10.20;99.90;;;;;;5012489;28;20175;-64
2021/10/06 06:56:18;;;;;;;2.30;1.63;;;10.20;99.90;;;;;;5012566;28;20293;-64
2021/10/06 06:58:43;;;;;;;2.07;1.73;;;10.00;99.90;;;;;;5012174;28;20552;-63
2021/10/06 07:01:09;;;;;;;2.83;2.20;;;10.00;99.90;;;;;;5012563;28;20461;-64
2021/10/06 07:03:34;;;;;;;3.60;2.10;;;10.20;99.90;;;;;;5012595;28;20645;-64
2021/10/06 07:06:00;;;;;;;4.10;1.37;;;10.50;99.90;;;;;;5012465;28;20609;-63
2021/10/06 07:08:26;;;;;;;1.70;1.60;;;10.70;99.90;;;;;;5012096;28;20191;-64
2021/10/06 07:10:51;;;;;;;3.00;1.40;;;11.00;99.90;;;;;;5012508;28;20186;-63
2021/10/06 07:13:17;;;;;;;2.60;1.60;;;11.20;99.90;;;;;;5012431;28;20550;-63
2021/10/06 07:15:42;;;;;;;2.90;2.60;;;11.30;99.90;;;;;;5012357;28;20201;-63
2021/10/06 07:18:08;;;;;;;2.67;1.33;;;11.30;99.90;;;;;;5012006;28;20241;-63
2021/10/06 07:20:33;;;;;;;4.10;1.80;;;11.40;99.90;;;;;;5012228;28;20221;-65
2021/10/06 07:22:59;;;;;;;2.33;1.30;;;11.50;99.90;;;;;;5012168;28;20178;-65
2021/10/06 07:25:24;;;;;;;9.20;1.63;;;11.50;99.90;;;;;;5012319;28;20198;-63
2021/10/06 07:27:50;;;;;;;1.77;1.40;;;11.60;99.90;;;;;;5011917;28;20679;-64
2021/10/06 07:30:16;;;;;;;3.13;1.80;;;11.90;99.90;;;;;;5012233;28;20178;-64
2021/10/06 07:32:42;;;;;;;1.70;1.60;;;11.70;99.90;;;;;;5012257;28;20250;-65
2021/10/06 07:35:08;;;;;;;3.07;1.80;;;11.50;99.90;;;;;;5012092;28;20289;-63
2021/10/06 07:37:34;;;;;;;5.70;3.70;;;11.40;99.90;;;;;;5011689;28;20572;-62
2021/10/06 07:39:59;;;;;;;3.20;1.70;;;11.30;99.90;;;;;;5012382;28;20428;-64
2021/10/06 07:42:25;;;;;;;3.90;1.60;;;11.20;99.90;;;;;;5012308;28;20171;-64
2021/10/06 07:44:51;;;;;;;2.20;1.40;;;11.30;99.90;;;;;;5012149;28;20174;-65
2021/10/06 07:47:17;;;;;;;2.43;1.37;;;11.60;99.90;;;;;;5011774;28;20441;-65
2021/10/06 07:49:42;;;;;;;3.40;1.80;;;11.80;99.90;;;;;;5011892;28;20659;-64
2021/10/06 07:52:10;;;;;;;5.67;2.10;;;11.70;99.90;;;;;;5011925;28;20175;-65
2021/10/06 07:54:37;;;;;;;4.20;1.50;;;11.70;99.90;;;;;;5012032;28;20167;-63
2021/10/06 07:57:02;;;;;;;4.33;1.50;;;11.70;99.90;;;;;;5011832;28;20450;-63
2021/10/06 07:59:28;;;;;;;2.67;1.47;;;11.90;99.90;;;;;;5011658;28;20823;-64
2021/10/06 08:01:54;;;;;;;4.40;1.47;;;12.10;99.90;;;;;;5011906;28;20167;-63
2021/10/06 08:04:19;;;;;;;1.57;1.47;;;12.20;99.90;;;;;;5012347;28;20167;-64
2021/10/06 08:06:45;;;;;;;5.37;1.50;;;12.30;99.90;;;;;;5015593;28;20178;-64
2021/10/06 08:09:10;;;;;;;6.13;3.50;;;12.30;99.90;;;;;;5015338;28;20191;-63
2021/10/06 08:11:36;;;;;;;1.47;1.37;;;12.30;99.90;;;;;;5015678;28;20182;-64
2021/10/06 08:14:02;;;;;;;1.87;1.67;;;12.60;99.90;;;;;;5015735;28;20175;-63
2021/10/06 08:16:28;;;;;;;3.73;1.33;;;12.70;99.90;;;;;;5015541;28;20583;-63
2021/10/06 08:18:54;;;;;;;2.67;1.33;;;12.90;99.90;;;;;;5015187;28;20437;-66
2021/10/06 08:21:20;;;;;;;5.23;2.20;;;13.50;99.90;;;;;;5015402;28;20178;-65
2021/10/06 08:23:45;;;;;;;4.20;1.40;;;14.20;99.90;;;;;;5015635;28;20421;-64
2021/10/06 08:26:12;;;;;;;3.00;1.50;;;14.10;99.90;;;;;;5015386;28;20226;-64
2021/10/06 08:28:38;;;;;;;3.80;1.60;;;14.10;99.90;;;;;;5015004;28;20202;-64
2021/10/06 08:31:04;;;;;;;2.20;1.33;;;14.40;99.90;;;;;;5015260;28;20945;-64
2021/10/06 08:33:29;;;;;;;3.30;1.50;;;14.20;99.90;;;;;;5015189;28;20177;-64
2021/10/06 08:35:55;;;;;;;3.93;1.30;;;13.80;99.90;;;;;;5015036;28;20461;-65
2021/10/06 08:38:21;;;;;;;3.07;1.67;;;13.30;99.90;;;;;;5014709;28;20218;-63
2021/10/06 08:40:46;;;;;;;2.87;1.77;;;13.00;99.90;;;;;;5015170;28;20539;-64
2021/10/06 08:43:12;;;;;;;2.43;1.80;;;12.80;99.90;;;;;;5015039;28;20174;-65
2021/10/06 08:45:39;;;;;;;2.97;1.33;;;12.70;99.90;;;;;;5015102;28;20182;-64
2021/10/06 08:48:07;;;;;;;5.30;1.80;;;12.70;99.90;;;;;;5014620;28;20195;-63
2021/10/06 08:50:34;;;;;;;2.17;1.20;;;12.80;99.90;;;;;;5014831;28;20418;-64
2021/10/06 08:52:59;;;;;;;1.87;1.27;;;12.50;99.90;;;;;;5014905;28;20421;-63
2021/10/06 08:55:29;;;;;;;3.77;1.83;;;12.50;99.90;;;;;;5014766;28;20878;-64
2021/10/06 08:58:04;;;;;;;3.73;1.90;;;12.60;99.90;;;;;;5014481;28;20197;-64
2021/10/06 09:00:31;;;;;;;2.77;1.30;;;13.00;99.90;;;;;;5014697;28;20922;-64
2021/10/06 09:03:06;;;;;;;1.90;1.30;;;13.30;99.90;;;;;;5014695;28;20815;-65
2021/10/06 09:05:32;;;;;;;2.50;1.50;;;14.40;99.90;;;;;;5014656;28;20421;-65
2021/10/06 09:08:07;;;;;;;2.33;1.87;;;15.80;99.90;;;;;;5014220;28;20445;-64
2021/10/06 09:10:34;;;;;;;8.67;2.17;;;16.80;99.90;;;;;;5014645;28;20206;-64
2021/10/06 09:13:03;;;;;;;2.50;1.90;;;16.50;99.90;;;;;;5014562;28;20445;-65
2021/10/06 09:15:40;;;;;;;2.67;2.47;;;15.80;99.90;;;;;;5013789;28;20468;-65
2021/10/06 09:18:16;;;;;;;2.90;1.80;;;14.70;99.90;;;;;;5012348;28;20449;-64
2021/10/06 09:20:42;;;;;;;3.40;1.60;;;14.20;99.90;;;;;;5014367;28;20409;-63
2021/10/06 09:23:11;;;;;;;2.23;1.40;;;13.90;99.90;;;;;;5014391;28;20410;-64
2021/10/06 09:25:51;;;;;;;4.03;2.77;;;14.10;99.90;;;;;;5014364;28;20178;-64
2021/10/06 09:28:46;;;;;;;1.80;1.53;;;14.80;99.90;;;;;;5013907;28;20476;-64
2021/10/06 09:31:18;;;;;;;3.37;1.60;;;15.40;99.90;;;;;;5014319;28;20791;-65
2021/10/06 09:33:56;;;;;;;2.30;1.63;;;15.40;99.90;;;;;;5014148;28;20484;-63
2021/10/06 09:36:30;;;;;;;2.80;1.30;;;15.40;99.90;;;;;;5014180;28;21100;-65
2021/10/06 09:39:02;;;;;;;1.10;1.00;;;15.20;99.90;;;;;;5013714;28;20452;-65
2021/10/06 09:41:29;;;;;;;3.33;1.90;;;15.40;99.90;;;;;;5014375;28;20417;-64
2021/10/06 09:44:09;;;;;;;1.80;1.30;;;16.00;99.90;;;;;;5014023;28;20421;-64
2021/10/06 09:46:49;;;;;;;5.70;1.40;;;16.20;99.90;;;;;;5013909;28;20990;-64
2021/10/06 09:49:33;;;;;;;4.40;2.00;;;17.10;99.90;;;;;;5013723;28;20645;-65
2021/10/06 09:52:21;;;;;;;3.30;1.57;;;17.90;99.90;;;;;;5013949;28;20835;-63
2021/10/06 09:54:51;;;;;;;2.37;1.33;;;18.60;99.90;;;;;;5013678;28;20425;-65
2021/10/06 09:57:30;;;;;;;4.03;2.00;;;18.50;99.90;;;;;;5013428;28;20436;-64
2021/10/06 09:59:58;;;;;;;2.70;1.50;;;18.10;99.90;;;;;;5013626;28;20405;-64
2021/10/06 10:02:26;;;;;;;1.93;1.20;;;17.90;99.90;;;;;;5013642;28;20468;-64
2021/10/06 10:04:54;;;;;;;3.37;1.50;;;17.30;99.90;;;;;;5013029;28;20782;-64
2021/10/06 10:07:21;;;;;;;6.67;2.00;;;16.20;99.90;;;;;;5013101;28;20475;-64
2021/10/06 10:09:47;;;;;;;2.73;2.00;;;15.90;99.90;;;;;;5013468;28;20446;-64
2021/10/06 10:12:13;;;;;;;4.57;2.30;;;15.60;99.90;;;;;;5013674;28;20414;-64
2021/10/06 10:14:40;;;;;;;2.23;1.30;;;15.50;99.90;;;;;;5013399;28;20821;-64
2021/10/06 10:17:05;;;;;;;2.77;1.57;;;15.50;99.90;;;;;;5011949;28;20676;-63
2021/10/06 10:19:32;;;;;;;5.53;1.60;;;15.60;99.90;;;;;;5013034;28;20414;-65
2021/10/06 10:22:01;;;;;;;1.83;1.50;;;15.60;99.90;;;;;;5013173;28;20245;-64
2021/10/06 10:24:26;;;;;;;2.93;1.83;;;15.60;99.90;;;;;;5013109;28;20418;-64
2021/10/06 10:27:05;;;;;;;2.43;1.50;;;15.60;99.90;;;;;;5012906;28;20418;-64
2021/10/06 10:29:36;;;;;;;2.13;1.60;;;16.50;99.90;;;;;;5012899;28;20177;-64
2021/10/06 10:32:13;;;;;;;7.43;1.97;;;17.20;99.90;;;;;;5013145;28;20424;-65
2021/10/06 10:35:04;;;;;;;1.87;1.00;;;19.50;99.90;;;;;;5012988;28;20421;-64
2021/10/06 10:37:48;;;;;;;2.93;2.53;;;22.50;95.60;;;;;;5003110;28;20470;-65
2021/10/06 10:40:32;;;;;;;4.03;1.10;;;21.50;93.90;;;;;;5012987;28;20810;-64
2021/10/06 10:43:06;;;;;;;1.97;1.20;;;19.20;99.90;;;;;;5012853;28;20428;-65
2021/10/06 10:45:36;;;;;;;5.70;1.50;;;17.20;99.90;;;;;;5012906;28;20425;-66
2021/10/06 10:48:02;;;;;;;4.10;1.97;;;15.60;99.90;;;;;;5011123;28;20468;-64
2021/10/06 10:50:44;;;;;;;2.00;1.57;;;15.00;99.90;;;;;;5012727;28;20418;-63
2021/10/06 10:53:11;;;;;;;4.47;1.20;;;14.70;99.90;;;;;;5012732;28;20410;-64
2021/10/06 10:55:52;;;;;;;2.47;1.50;;;14.40;99.90;;;;;;5012606;28;20866;-66
2021/10/06 10:58:43;;;;;;;4.13;1.87;;;14.40;99.90;;;;;;5012351;28;20433;-64
2021/10/06 11:01:15;;;;;;;3.83;2.70;;;14.60;99.90;;;;;;5012620;28;20425;-63
2021/10/06 11:04:19;;;;;;;6.07;1.47;;;15.20;99.90;;;;;;5011969;28;20406;-63
2021/10/06 11:06:50;;;;;;;2.83;1.57;;;15.60;99.90;;;;;;5012502;28;20931;-64
2021/10/06 11:09:30;;;;;;;5.23;1.53;;;15.80;99.90;;;;;;5012226;28;20429;-64
2021/10/06 11:12:05;;;;;;;6.50;1.60;;;15.80;99.90;;;;;;5012421;28;20417;-64
2021/10/06 11:14:32;;;;;;;2.17;1.57;;;16.00;99.90;;;;;;5012455;28;20409;-67
2021/10/06 11:17:11;;;;;;;3.23;0.90;;;17.40;99.90;;;;;;5012235;28;20599;-65
2021/10/06 11:19:54;;;;;;;2.13;1.50;;;17.70;99.90;;;;;;5012257;28;20418;-67
2021/10/06 11:22:23;;;;;;;2.07;1.47;;;17.00;99.90;;;;;;5012354;28;20425;-64
2021/10/06 11:24:50;;;;;;;2.33;1.40;;;16.40;99.90;;;;;;5012359;28;20414;-63
2021/10/06 11:27:16;;;;;;;3.33;1.40;;;16.40;99.90;;;;;;5012055;28;20428;-64
2021/10/06 11:29:42;;;;;;;3.53;2.00;;;16.50;99.90;;;;;;5012306;28;20410;-63
2021/10/06 11:32:08;;;;;;;2.53;1.93;;;16.30;99.90;;;;;;5012218;28;20414;-63
2021/10/06 11:34:47;;;;;;;4.60;1.77;;;16.50;99.90;;;;;;5012103;28;20410;-64
2021/10/06 11:37:21;;;;;;;3.87;1.93;;;17.00;99.90;;;;;;5011988;28;20210;-67
2021/10/06 11:39:48;;;;;;;2.80;1.60;;;18.50;99.90;;;;;;5013517;28;20504;-64
2021/10/06 11:42:14;;;;;;;2.63;1.30;;;20.60;99.90;;;;;;5016254;28;20417;-65
2021/10/06 11:44:41;;;;;;;2.10;1.30;;;23.40;95.60;;;;;;5016178;28;20518;-65
2021/10/06 11:47:18;;;;;;;2.50;1.10;;;24.20;90.90;;;;;;5015922;28;20461;-64
2021/10/06 11:49:46;;;;;;;1.97;1.40;;;25.70;83.30;;;;;;5016039;28;20445;-65
2021/10/06 11:52:13;;;;;;;2.10;1.63;;;26.10;77.00;;;;;;5016192;28;20505;-64
2021/10/06 11:54:39;;;;;;;3.40;1.17;;;26.10;73.40;;;;;;5016013;28;20418;-65
2021/10/06 11:57:08;;;;;;;2.80;1.20;;;26.30;68.60;;;;;;5015796;28;20463;-65
2021/10/06 11:59:34;;;;;;;1.87;1.57;;;26.60;67.80;;;;;;5015686;28;20521;-64
2021/10/06 12:02:01;;;;;;;2.20;1.53;;;25.90;68.40;;;;;;5015901;28;20775;-64
2021/10/06 12:04:32;;;;;;;2.10;1.33;;;23.60;71.50;;;;;;5015928;28;20991;-66
2021/10/06 12:07:09;;;;;;;3.47;1.53;;;20.50;80.00;;;;;;5015764;28;20416;-64
2021/10/06 12:09:37;;;;;;;2.97;1.20;;;18.60;94.90;;;;;;5015595;28;20903;-63
2021/10/06 12:12:14;;;;;;;3.07;2.00;;;17.40;99.90;;;;;;5015725;28;20508;-64
2021/10/06 12:15:07;;;;;;;2.93;1.90;;;16.90;99.90;;;;;;5015695;28;20430;-63
2021/10/06 12:17:38;;;;;;;3.83;1.70;;;16.30;99.90;;;;;;5012819;28;20857;-65
2021/10/06 12:20:08;;;;;;;5.97;2.17;;;16.00;99.90;;;;;;5015523;28;21277;-63
2021/10/06 12:22:54;;;;;;;2.23;1.23;;;15.20;99.90;;;;;;5015423;28;20484;-63
2021/10/06 12:25:22;;;;;;;2.20;1.50;;;14.00;99.90;;;;;;5015255;28;20804;-63
2021/10/06 12:27:50;;;;;;;1.43;1.33;;;13.60;99.90;;;;;;5015163;28;20495;-64
2021/10/06 12:30:31;;;;;;;5.80;1.40;;;14.80;99.90;;;;;;5015355;28;20501;-64
2021/10/06 12:33:06;;;;;;;1.90;1.30;;;18.10;99.90;;;;;;5015289;28;20932;-64
2021/10/06 12:35:45;;;;;;;1.53;1.43;;;22.10;99.90;;;;;;5015164;28;20445;-65
2021/10/06 12:38:11;;;;;;;3.30;1.60;;;25.80;99.90;;;;;;5014714;28;20905;-64
2021/10/06 12:40:36;;;;;;;1.53;0.90;;;27.00;95.90;;;;;;5015124;28;20625;-65
2021/10/06 12:43:11;;;;;;;2.80;1.33;;;27.90;94.00;;;;;;5015109;28;20166;-66
2021/10/06 12:46:07;;;;;;;1.43;1.20;;;29.20;91.20;;;;;;5015036;28;20209;-65
2021/10/06 12:48:47;;;;;;;2.10;1.43;;;29.20;76.70;;;;;;5014687;28;20465;-66
2021/10/06 12:51:28;;;;;;;2.30;1.70;;;28.60;77.80;;;;;;5014674;28;20417;-63
2021/10/06 12:54:15;;;;;;;2.03;1.00;;;28.00;74.80;;;;;;5014866;28;20464;-64